sensor_id;sensor_type;location;lat;lon;timestamp;temperature;humidity
40600;DHT22;26309;50.924;4.754;2023-11-19T00:00:16;14.60;99.90
40600;DHT22;26309;50.924;4.754;2023-11-19T00:02:42;14.60;99.90
40600;DHT22;26309;50.924;4.754;2023-11-19T00:05:09;14.60;99.90
40600;DHT22;26309;50.924;4.754;2023-11-19T00:07:37;14.60;99.90
40600;DHT22;26309;50.924;4.754;2023-11-19T00:10:11;14.70;99.90
40600;DHT22;26309;50.924;4.754;2023-11-19T00:12:42;14.70;99.90
40600;DHT22;26309;50.924;4.754;2023-11-19T00:15:08;14.60;99.90
40600;DHT22;26309;50.924;4.754;2023-11-19T00:17:41;14.60;99.90
40600;DHT22;26309;50.924;4.754;2023-11-19T00:20:14;14.80;99.90
40600;DHT22;26309;50.924;4.754;2023-11-19T00:22:41;14.70;99.90
40600;DHT22;26309;50.924;4.754;2023-11-19T00:25:10;14.70;99.90
40600;DHT22;26309;50.924;4.754;2023-11-19T00:27:37;14.70;99.90
40600;DHT22;26309;50.924;4.754;2023-11-19T00:30:04;14.90;99.90
40600;DHT22;26309;50.924;4.754;2023-11-19T00:32:32;14.90;99.90
40600;DHT22;26309;50.924;4.754;2023-11-19T00:34:58;14.90;99.90
40600;DHT22;26309;50.924;4.754;2023-11-19T00:37:24;14.70;99.90
40600;DHT22;26309;50.924;4.754;2023-11-19T00:39:50;14.80;99.90
40600;DHT22;26309;50.924;4.754;2023-11-19T00:42:17;14.80;99.90
40600;DHT22;26309;50.924;4.754;2023-11-19T00:44:43;14.70;99.90
40600;DHT22;26309;50.924;4.754;2023-11-19T00:47:09;14.70;99.90
40600;DHT22;26309;50.924;4.754;2023-11-19T00:49:35;14.60;99.90
40600;DHT22;26309;50.924;4.754;2023-11-19T00:52:01;14.60;99.90
40600;DHT22;26309;50.924;4.754;2023-11-19T00:54:28;14.60;99.90
40600;DHT22;26309;50.924;4.754;2023-11-19T00:56:54;14.60;99.90
40600;DHT22;26309;50.924;4.754;2023-11-19T00:59:20;14.70;99.90
40600;DHT22;26309;50.924;4.754;2023-11-19T01:01:46;14.70;99.90
40600;DHT22;26309;50.924;4.754;2023-11-19T01:04:16;14.60;99.90
40600;DHT22;26309;50.924;4.754;2023-11-19T01:06:43;14.60;99.90
40600;DHT22;26309;50.924;4.754;2023-11-19T01:09:09;14.70;99.90
40600;DHT22;26309;50.924;4.754;2023-11-19T01:11:35;14.80;99.90
40600;DHT22;26309;50.924;4.754;2023-11-19T01:14:01;14.70;99.90
40600;DHT22;26309;50.924;4.754;2023-11-19T01:16:28;14.70;99.90
40600;DHT22;26309;50.924;4.754;2023-11-19T01:18:53;14.70;99.90
40600;DHT22;26309;50.924;4.754;2023-11-19T01:21:20;14.80;99.90
40600;DHT22;26309;50.924;4.754;2023-11-19T01:23:47;14.90;99.90
40600;DHT22;26309;50.924;4.754;2023-11-19T01:26:13;14.80;99.90
40600;DHT22;26309;50.924;4.754;2023-11-19T01:28:39;14.90;99.90
40600;DHT22;26309;50.924;4.754;2023-11-19T01:31:08;14.90;99.90
40600;DHT22;26309;50.924;4.754;2023-11-19T01:33:36;14.90;99.90
40600;DHT22;26309;50.924;4.754;2023-11-19T01:36:02;14.80;99.90
40600;DHT22;26309;50.924;4.754;2023-11-19T01:38:29;14.80;99.90
40600;DHT22;26309;50.924;4.754;2023-11-19T01:40:57;14.70;99.90
40600;DHT22;26309;50.924;4.754;2023-11-19T01:43:36;14.70;99.90
40600;DHT22;26309;50.924;4.754;2023-11-19T01:46:04;14.60;99.90
40600;DHT22;26309;50.924;4.754;2023-11-19T01:48:33;14.70;99.90
40600;DHT22;26309;50.924;4.754;2023-11-19T01:51:01;14.60;99.90
40600;DHT22;26309;50.924;4.754;2023-11-19T01:53:27;14.50;99.90
40600;DHT22;26309;50.924;4.754;2023-11-19T01:55:54;14.60;99.90
40600;DHT22;26309;50.924;4.754;2023-11-19T01:58:21;14.50;99.90
40600;DHT22;26309;50.924;4.754;2023-11-19T02:00:48;14.50;99.90
40600;DHT22;26309;50.924;4.754;2023-11-19T02:03:14;14.40;99.90
40600;DHT22;26309;50.924;4.754;2023-11-19T02:05:40;14.50;99.90
40600;DHT22;26309;50.924;4.754;2023-11-19T02:08:06;14.40;99.90
40600;DHT22;26309;50.924;4.754;2023-11-19T02:10:32;14.50;99.90
40600;DHT22;26309;50.924;4.754;2023-11-19T02:12:58;14.50;99.90
40600;DHT22;26309;50.924;4.754;2023-11-19T02:15:25;14.40;99.90
40600;DHT22;26309;50.924;4.754;2023-11-19T02:17:51;14.40;99.90
40600;DHT22;26309;50.924;4.754;2023-11-19T02:20:17;14.60;99.90
40600;DHT22;26309;50.924;4.754;2023-11-19T02:22:46;14.70;99.90
40600;DHT22;26309;50.924;4.754;2023-11-19T02:25:19;14.70;99.90
40600;DHT22;26309;50.924;4.754;2023-11-19T02:30:14;14.50;99.90
40600;DHT22;26309;50.924;4.754;2023-11-19T02:32:41;14.30;99.90
40600;DHT22;26309;50.924;4.754;2023-11-19T02:35:07;14.20;99.90
40600;DHT22;26309;50.924;4.754;2023-11-19T02:37:34;14.10;99.90
40600;DHT22;26309;50.924;4.754;2023-11-19T02:40:00;14.10;99.90
40600;DHT22;26309;50.924;4.754;2023-11-19T02:42:28;14.20;99.90
40600;DHT22;26309;50.924;4.754;2023-11-19T02:44:54;14.20;99.90
40600;DHT22;26309;50.924;4.754;2023-11-19T02:47:20;14.20;99.90
40600;DHT22;26309;50.924;4.754;2023-11-19T02:49:47;14.10;99.90
40600;DHT22;26309;50.924;4.754;2023-11-19T02:52:15;14.20;99.90
40600;DHT22;26309;50.924;4.754;2023-11-19T02:54:43;14.10;99.90
40600;DHT22;26309;50.924;4.754;2023-11-19T02:57:08;14.00;99.90
40600;DHT22;26309;50.924;4.754;2023-11-19T02:59:38;14.00;99.90
40600;DHT22;26309;50.924;4.754;2023-11-19T03:02:08;14.00;99.90
40600;DHT22;26309;50.924;4.754;2023-11-19T03:04:37;14.00;99.90
40600;DHT22;26309;50.924;4.754;2023-11-19T03:07:07;13.80;99.90
40600;DHT22;26309;50.924;4.754;2023-11-19T03:09:33;13.80;99.90
40600;DHT22;26309;50.924;4.754;2023-11-19T03:12:00;13.80;99.90
40600;DHT22;26309;50.924;4.754;2023-11-19T03:14:29;13.80;99.90
40600;DHT22;26309;50.924;4.754;2023-11-19T03:16:56;13.70;99.90
40600;DHT22;26309;50.924;4.754;2023-11-19T03:19:22;13.60;99.90
40600;DHT22;26309;50.924;4.754;2023-11-19T03:21:48;13.60;99.90
40600;DHT22;26309;50.924;4.754;2023-11-19T03:24:14;13.70;99.90
40600;DHT22;26309;50.924;4.754;2023-11-19T03:26:41;13.70;99.90
40600;DHT22;26309;50.924;4.754;2023-11-19T03:29:08;13.80;99.90
40600;DHT22;26309;50.924;4.754;2023-11-19T03:31:34;13.70;99.90
40600;DHT22;26309;50.924;4.754;2023-11-19T03:33:59;13.70;99.90
40600;DHT22;26309;50.924;4.754;2023-11-19T03:36:31;13.60;99.90
40600;DHT22;26309;50.924;4.754;2023-11-19T03:38:58;13.50;99.90
40600;DHT22;26309;50.924;4.754;2023-11-19T03:41:23;13.50;99.90
40600;DHT22;26309;50.924;4.754;2023-11-19T03:43:49;13.60;99.90
40600;DHT22;26309;50.924;4.754;2023-11-19T03:46:24;13.60;99.90
40600;DHT22;26309;50.924;4.754;2023-11-19T03:48:50;13.60;99.90
40600;DHT22;26309;50.924;4.754;2023-11-19T03:51:16;13.60;99.90
40600;DHT22;26309;50.924;4.754;2023-11-19T03:53:46;13.60;99.90
40600;DHT22;26309;50.924;4.754;2023-11-19T03:56:12;13.50;99.90
40600;DHT22;26309;50.924;4.754;2023-11-19T03:58:38;13.40;99.90
40600;DHT22;26309;50.924;4.754;2023-11-19T04:01:11;13.50;99.90
40600;DHT22;26309;50.924;4.754;2023-11-19T04:03:41;13.40;99.90
40600;DHT22;26309;50.924;4.754;2023-11-19T04:06:07;13.40;99.90
40600;DHT22;26309;50.924;4.754;2023-11-19T04:08:33;13.40;99.90
40600;DHT22;26309;50.924;4.754;2023-11-19T04:11:00;13.30;99.90
40600;DHT22;26309;50.924;4.754;2023-11-19T04:13:26;13.30;99.90
40600;DHT22;26309;50.924;4.754;2023-11-19T04:15:52;13.40;99.90
40600;DHT22;26309;50.924;4.754;2023-11-19T04:18:18;13.40;99.90
40600;DHT22;26309;50.924;4.754;2023-11-19T04:20:43;13.40;99.90
40600;DHT22;26309;50.924;4.754;2023-11-19T04:23:09;13.30;99.90
40600;DHT22;26309;50.924;4.754;2023-11-19T04:25:35;13.20;99.90
40600;DHT22;26309;50.924;4.754;2023-11-19T04:28:01;13.20;99.90
40600;DHT22;26309;50.924;4.754;2023-11-19T04:30:28;13.10;99.90
40600;DHT22;26309;50.924;4.754;2023-11-19T04:32:54;13.10;99.90
40600;DHT22;26309;50.924;4.754;2023-11-19T04:35:20;13.20;99.90
40600;DHT22;26309;50.924;4.754;2023-11-19T04:37:46;13.40;99.90
40600;DHT22;26309;50.924;4.754;2023-11-19T04:40:13;13.30;99.90
40600;DHT22;26309;50.924;4.754;2023-11-19T04:42:38;13.40;99.90
40600;DHT22;26309;50.924;4.754;2023-11-19T04:45:07;13.50;99.90
40600;DHT22;26309;50.924;4.754;2023-11-19T04:47:36;13.60;99.90
40600;DHT22;26309;50.924;4.754;2023-11-19T04:50:02;13.60;99.90
40600;DHT22;26309;50.924;4.754;2023-11-19T04:52:29;13.50;99.90
40600;DHT22;26309;50.924;4.754;2023-11-19T04:54:55;13.50;99.90
40600;DHT22;26309;50.924;4.754;2023-11-19T04:57:20;13.50;99.90
40600;DHT22;26309;50.924;4.754;2023-11-19T04:59:46;13.50;99.90
40600;DHT22;26309;50.924;4.754;2023-11-19T05:02:12;13.60;99.90
40600;DHT22;26309;50.924;4.754;2023-11-19T05:04:43;13.50;99.90
40600;DHT22;26309;50.924;4.754;2023-11-19T05:07:12;13.40;99.90
40600;DHT22;26309;50.924;4.754;2023-11-19T05:09:38;13.30;99.90
40600;DHT22;26309;50.924;4.754;2023-11-19T05:12:04;13.20;99.90
40600;DHT22;26309;50.924;4.754;2023-11-19T05:14:29;13.20;99.90
40600;DHT22;26309;50.924;4.754;2023-11-19T05:16:55;13.10;99.90
40600;DHT22;26309;50.924;4.754;2023-11-19T05:19:21;13.10;99.90
40600;DHT22;26309;50.924;4.754;2023-11-19T05:21:47;13.00;99.90
40600;DHT22;26309;50.924;4.754;2023-11-19T05:24:12;13.00;99.90
40600;DHT22;26309;50.924;4.754;2023-11-19T05:26:38;13.00;99.90
40600;DHT22;26309;50.924;4.754;2023-11-19T05:29:04;12.90;99.90
40600;DHT22;26309;50.924;4.754;2023-11-19T05:31:30;12.90;99.90
40600;DHT22;26309;50.924;4.754;2023-11-19T05:33:56;12.90;99.90
40600;DHT22;26309;50.924;4.754;2023-11-19T05:36:22;12.90;99.90
40600;DHT22;26309;50.924;4.754;2023-11-19T05:38:47;13.00;99.90
40600;DHT22;26309;50.924;4.754;2023-11-19T05:41:14;13.00;99.90
40600;DHT22;26309;50.924;4.754;2023-11-19T05:43:40;12.90;99.90
40600;DHT22;26309;50.924;4.754;2023-11-19T05:46:06;13.00;99.90
40600;DHT22;26309;50.924;4.754;2023-11-19T05:48:32;13.00;99.90
40600;DHT22;26309;50.924;4.754;2023-11-19T05:50:58;12.90;99.90
40600;DHT22;26309;50.924;4.754;2023-11-19T05:53:25;12.80;99.90
40600;DHT22;26309;50.924;4.754;2023-11-19T05:55:51;12.80;99.90
40600;DHT22;26309;50.924;4.754;2023-11-19T05:58:25;12.80;99.90
40600;DHT22;26309;50.924;4.754;2023-11-19T06:00:52;12.80;99.90
40600;DHT22;26309;50.924;4.754;2023-11-19T06:03:18;12.80;99.90
40600;DHT22;26309;50.924;4.754;2023-11-19T06:05:47;12.80;99.90
40600;DHT22;26309;50.924;4.754;2023-11-19T06:08:14;12.70;99.90
40600;DHT22;26309;50.924;4.754;2023-11-19T06:10:43;12.80;99.90
40600;DHT22;26309;50.924;4.754;2023-11-19T06:13:14;12.80;99.90
40600;DHT22;26309;50.924;4.754;2023-11-19T06:15:42;12.70;99.90
40600;DHT22;26309;50.924;4.754;2023-11-19T06:18:08;12.70;99.90
40600;DHT22;26309;50.924;4.754;2023-11-19T06:20:35;12.70;99.90
40600;DHT22;26309;50.924;4.754;2023-11-19T06:23:01;12.70;99.90
40600;DHT22;26309;50.924;4.754;2023-11-19T06:25:27;12.70;99.90
40600;DHT22;26309;50.924;4.754;2023-11-19T06:27:53;12.80;99.90
40600;DHT22;26309;50.924;4.754;2023-11-19T06:30:20;12.90;99.90
40600;DHT22;26309;50.924;4.754;2023-11-19T06:32:46;12.80;99.90
40600;DHT22;26309;50.924;4.754;2023-11-19T06:35:12;12.80;99.90
40600;DHT22;26309;50.924;4.754;2023-11-19T06:37:40;12.60;99.90
40600;DHT22;26309;50.924;4.754;2023-11-19T06:40:07;12.80;99.90
40600;DHT22;26309;50.924;4.754;2023-11-19T06:42:35;12.70;99.90
40600;DHT22;26309;50.924;4.754;2023-11-19T06:45:01;12.80;99.90
40600;DHT22;26309;50.924;4.754;2023-11-19T06:47:28;12.70;99.90
40600;DHT22;26309;50.924;4.754;2023-11-19T06:49:54;12.70;99.90
40600;DHT22;26309;50.924;4.754;2023-11-19T06:52:20;12.60;99.90
40600;DHT22;26309;50.924;4.754;2023-11-19T06:54:46;12.60;99.90
40600;DHT22;26309;50.924;4.754;2023-11-19T06:57:12;12.60;99.90
40600;DHT22;26309;50.924;4.754;2023-11-19T06:59:39;12.60;99.90
40600;DHT22;26309;50.924;4.754;2023-11-19T07:02:05;12.50;99.90
40600;DHT22;26309;50.924;4.754;2023-11-19T07:04:32;12.60;99.90
40600;DHT22;26309;50.924;4.754;2023-11-19T07:06:59;12.50;99.90
40600;DHT22;26309;50.924;4.754;2023-11-19T07:09:27;12.50;99.90
40600;DHT22;26309;50.924;4.754;2023-11-19T07:11:53;12.50;99.90
40600;DHT22;26309;50.924;4.754;2023-11-19T07:14:19;12.50;99.90
40600;DHT22;26309;50.924;4.754;2023-11-19T07:16:45;12.40;99.90
40600;DHT22;26309;50.924;4.754;2023-11-19T07:19:12;12.50;99.90
40600;DHT22;26309;50.924;4.754;2023-11-19T07:21:41;12.50;99.90
40600;DHT22;26309;50.924;4.754;2023-11-19T07:24:12;12.40;99.90
40600;DHT22;26309;50.924;4.754;2023-11-19T07:26:46;12.60;99.90
40600;DHT22;26309;50.924;4.754;2023-11-19T07:29:13;12.60;99.90
40600;DHT22;26309;50.924;4.754;2023-11-19T07:31:39;12.50;99.90
40600;DHT22;26309;50.924;4.754;2023-11-19T07:34:05;12.60;99.90
40600;DHT22;26309;50.924;4.754;2023-11-19T07:36:32;12.60;99.90
40600;DHT22;26309;50.924;4.754;2023-11-19T07:38:58;12.60;99.90
40600;DHT22;26309;50.924;4.754;2023-11-19T07:41:24;12.60;99.90
40600;DHT22;26309;50.924;4.754;2023-11-19T07:43:51;12.70;99.90
40600;DHT22;26309;50.924;4.754;2023-11-19T07:46:18;12.70;99.90
40600;DHT22;26309;50.924;4.754;2023-11-19T07:48:46;12.50;99.90
40600;DHT22;26309;50.924;4.754;2023-11-19T07:51:15;12.50;99.90
40600;DHT22;26309;50.924;4.754;2023-11-19T07:53:41;12.50;99.90
40600;DHT22;26309;50.924;4.754;2023-11-19T07:56:08;12.50;99.90
40600;DHT22;26309;50.924;4.754;2023-11-19T07:58:34;12.50;99.90
40600;DHT22;26309;50.924;4.754;2023-11-19T08:01:00;12.40;99.90
40600;DHT22;26309;50.924;4.754;2023-11-19T08:03:27;12.50;99.90
40600;DHT22;26309;50.924;4.754;2023-11-19T08:05:55;12.50;99.90
40600;DHT22;26309;50.924;4.754;2023-11-19T08:08:25;12.60;99.90
40600;DHT22;26309;50.924;4.754;2023-11-19T08:10:51;12.70;99.90
40600;DHT22;26309;50.924;4.754;2023-11-19T08:13:21;12.80;99.90
40600;DHT22;26309;50.924;4.754;2023-11-19T08:15:55;12.80;99.90
40600;DHT22;26309;50.924;4.754;2023-11-19T08:18:21;13.00;99.90
40600;DHT22;26309;50.924;4.754;2023-11-19T08:20:46;13.00;99.90
40600;DHT22;26309;50.924;4.754;2023-11-19T08:23:18;13.10;99.90
40600;DHT22;26309;50.924;4.754;2023-11-19T08:25:44;13.10;99.90
40600;DHT22;26309;50.924;4.754;2023-11-19T08:28:10;13.10;99.90
40600;DHT22;26309;50.924;4.754;2023-11-19T08:30:35;13.10;99.90
40600;DHT22;26309;50.924;4.754;2023-11-19T08:33:01;13.20;99.90
40600;DHT22;26309;50.924;4.754;2023-11-19T08:35:31;13.20;99.90
40600;DHT22;26309;50.924;4.754;2023-11-19T08:37:57;13.20;99.90
40600;DHT22;26309;50.924;4.754;2023-11-19T08:40:24;13.20;99.90
40600;DHT22;26309;50.924;4.754;2023-11-19T08:42:51;13.30;99.90
40600;DHT22;26309;50.924;4.754;2023-11-19T08:45:17;13.30;99.90
40600;DHT22;26309;50.924;4.754;2023-11-19T08:47:43;13.30;99.90
40600;DHT22;26309;50.924;4.754;2023-11-19T08:50:13;13.40;99.90
40600;DHT22;26309;50.924;4.754;2023-11-19T08:52:39;13.50;99.90
40600;DHT22;26309;50.924;4.754;2023-11-19T08:55:05;13.40;99.90
40600;DHT22;26309;50.924;4.754;2023-11-19T08:57:31;13.50;99.90
40600;DHT22;26309;50.924;4.754;2023-11-19T08:59:58;13.50;99.90
40600;DHT22;26309;50.924;4.754;2023-11-19T09:02:24;13.70;99.90
40600;DHT22;26309;50.924;4.754;2023-11-19T09:04:50;13.70;99.90
40600;DHT22;26309;50.924;4.754;2023-11-19T09:07:16;13.70;99.90
40600;DHT22;26309;50.924;4.754;2023-11-19T09:09:42;13.70;99.90
40600;DHT22;26309;50.924;4.754;2023-11-19T09:12:08;13.80;99.90
40600;DHT22;26309;50.924;4.754;2023-11-19T09:14:37;13.80;99.90
40600;DHT22;26309;50.924;4.754;2023-11-19T09:17:02;13.80;99.90
40600;DHT22;26309;50.924;4.754;2023-11-19T09:19:28;13.70;99.90
40600;DHT22;26309;50.924;4.754;2023-11-19T09:21:54;13.70;99.90
40600;DHT22;26309;50.924;4.754;2023-11-19T09:24:20;13.60;99.90
40600;DHT22;26309;50.924;4.754;2023-11-19T09:26:54;13.50;99.90
40600;DHT22;26309;50.924;4.754;2023-11-19T09:29:21;13.30;99.90
40600;DHT22;26309;50.924;4.754;2023-11-19T09:31:47;13.30;99.90
40600;DHT22;26309;50.924;4.754;2023-11-19T09:34:13;13.20;99.90
40600;DHT22;26309;50.924;4.754;2023-11-19T09:36:39;13.10;99.90
40600;DHT22;26309;50.924;4.754;2023-11-19T09:39:10;13.20;99.90
40600;DHT22;26309;50.924;4.754;2023-11-19T09:41:36;13.40;99.90
40600;DHT22;26309;50.924;4.754;2023-11-19T09:44:02;13.50;99.90
40600;DHT22;26309;50.924;4.754;2023-11-19T09:46:29;13.60;99.90
40600;DHT22;26309;50.924;4.754;2023-11-19T09:48:56;13.60;99.90
40600;DHT22;26309;50.924;4.754;2023-11-19T09:51:23;13.60;99.90
40600;DHT22;26309;50.924;4.754;2023-11-19T09:53:49;13.60;99.90
40600;DHT22;26309;50.924;4.754;2023-11-19T09:56:15;13.60;99.90
40600;DHT22;26309;50.924;4.754;2023-11-19T09:58:42;13.80;99.90
40600;DHT22;26309;50.924;4.754;2023-11-19T10:01:08;13.90;99.90
40600;DHT22;26309;50.924;4.754;2023-11-19T10:03:39;13.90;99.90
40600;DHT22;26309;50.924;4.754;2023-11-19T10:06:10;14.00;99.90
40600;DHT22;26309;50.924;4.754;2023-11-19T10:08:39;14.00;99.90
40600;DHT22;26309;50.924;4.754;2023-11-19T10:11:07;14.20;99.90
40600;DHT22;26309;50.924;4.754;2023-11-19T10:13:35;14.30;99.90
40600;DHT22;26309;50.924;4.754;2023-11-19T10:16:12;14.40;99.90
40600;DHT22;26309;50.924;4.754;2023-11-19T10:18:46;14.40;99.90
40600;DHT22;26309;50.924;4.754;2023-11-19T10:21:13;14.40;99.90
40600;DHT22;26309;50.924;4.754;2023-11-19T10:23:53;14.40;99.90
40600;DHT22;26309;50.924;4.754;2023-11-19T10:26:20;14.40;99.90
40600;DHT22;26309;50.924;4.754;2023-11-19T10:28:47;14.40;99.90
40600;DHT22;26309;50.924;4.754;2023-11-19T10:31:17;14.50;99.90
40600;DHT22;26309;50.924;4.754;2023-11-19T10:33:44;14.50;99.90
40600;DHT22;26309;50.924;4.754;2023-11-19T10:36:11;14.70;99.90
40600;DHT22;26309;50.924;4.754;2023-11-19T10:38:40;14.70;99.90
40600;DHT22;26309;50.924;4.754;2023-11-19T10:41:06;14.70;99.90
40600;DHT22;26309;50.924;4.754;2023-11-19T10:43:45;14.80;99.90
40600;DHT22;26309;50.924;4.754;2023-11-19T10:46:12;14.70;99.90
40600;DHT22;26309;50.924;4.754;2023-11-19T10:48:38;14.80;99.90
40600;DHT22;26309;50.924;4.754;2023-11-19T10:51:06;14.70;99.90
40600;DHT22;26309;50.924;4.754;2023-11-19T10:53:38;14.80;99.90
40600;DHT22;26309;50.924;4.754;2023-11-19T10:56:09;14.80;99.90
40600;DHT22;26309;50.924;4.754;2023-11-19T10:58:36;14.70;99.90
40600;DHT22;26309;50.924;4.754;2023-11-19T11:01:12;14.50;99.90
40600;DHT22;26309;50.924;4.754;2023-11-19T11:03:40;14.40;99.90
40600;DHT22;26309;50.924;4.754;2023-11-19T11:06:06;14.20;99.90
40600;DHT22;26309;50.924;4.754;2023-11-19T11:08:36;14.20;99.90
40600;DHT22;26309;50.924;4.754;2023-11-19T11:11:03;14.30;99.90
40600;DHT22;26309;50.924;4.754;2023-11-19T11:13:31;14.30;99.90
40600;DHT22;26309;50.924;4.754;2023-11-19T11:15:58;14.40;99.90
40600;DHT22;26309;50.924;4.754;2023-11-19T11:18:24;14.50;99.90
40600;DHT22;26309;50.924;4.754;2023-11-19T11:20:58;14.40;99.90
40600;DHT22;26309;50.924;4.754;2023-11-19T11:23:52;14.50;99.90
40600;DHT22;26309;50.924;4.754;2023-11-19T11:32:29;14.80;99.90
40600;DHT22;26309;50.924;4.754;2023-11-19T11:37:49;14.80;99.90
40600;DHT22;26309;50.924;4.754;2023-11-19T11:40:17;14.90;99.90
40600;DHT22;26309;50.924;4.754;2023-11-19T11:42:44;14.90;99.90
40600;DHT22;26309;50.924;4.754;2023-11-19T11:45:11;14.90;99.90
40600;DHT22;26309;50.924;4.754;2023-11-19T11:50:09;14.90;99.90
40600;DHT22;26309;50.924;4.754;2023-11-19T11:55:27;14.70;99.90
40600;DHT22;26309;50.924;4.754;2023-11-19T11:57:54;14.70;99.90
40600;DHT22;26309;50.924;4.754;2023-11-19T12:03:02;14.60;99.90
40600;DHT22;26309;50.924;4.754;2023-11-19T12:05:29;14.60;99.90
40600;DHT22;26309;50.924;4.754;2023-11-19T12:08:05;14.60;99.90
40600;DHT22;26309;50.924;4.754;2023-11-19T12:10:55;14.70;99.90
40600;DHT22;26309;50.924;4.754;2023-11-19T12:13:24;14.80;99.90
40600;DHT22;26309;50.924;4.754;2023-11-19T12:18:31;15.00;99.90
40600;DHT22;26309;50.924;4.754;2023-11-19T12:20:58;15.10;99.90
40600;DHT22;26309;50.924;4.754;2023-11-19T12:23:31;15.20;99.90
40600;DHT22;26309;50.924;4.754;2023-11-19T12:25:58;15.20;99.90
40600;DHT22;26309;50.924;4.754;2023-11-19T12:28:25;15.40;99.90
40600;DHT22;26309;50.924;4.754;2023-11-19T12:30:54;15.40;99.90
40600;DHT22;26309;50.924;4.754;2023-11-19T12:33:32;15.50;99.90
40600;DHT22;26309;50.924;4.754;2023-11-19T12:35:58;15.50;99.90
40600;DHT22;26309;50.924;4.754;2023-11-19T12:38:26;15.60;99.90
40600;DHT22;26309;50.924;4.754;2023-11-19T12:41:08;15.30;99.90
40600;DHT22;26309;50.924;4.754;2023-11-19T12:43:36;15.30;99.90
40600;DHT22;26309;50.924;4.754;2023-11-19T12:46:16;15.10;99.90
40600;DHT22;26309;50.924;4.754;2023-11-19T12:48:42;15.10;99.90
40600;DHT22;26309;50.924;4.754;2023-11-19T12:51:08;14.90;99.90
40600;DHT22;26309;50.924;4.754;2023-11-19T12:53:48;14.80;99.90
40600;DHT22;26309;50.924;4.754;2023-11-19T12:56:15;14.90;99.90
40600;DHT22;26309;50.924;4.754;2023-11-19T12:58:41;15.00;99.90
40600;DHT22;26309;50.924;4.754;2023-11-19T13:01:08;15.00;99.90
40600;DHT22;26309;50.924;4.754;2023-11-19T13:03:38;14.90;99.90
40600;DHT22;26309;50.924;4.754;2023-11-19T13:08:59;14.80;99.90
40600;DHT22;26309;50.924;4.754;2023-11-19T13:11:35;14.70;99.90
40600;DHT22;26309;50.924;4.754;2023-11-19T13:14:04;14.70;99.90
40600;DHT22;26309;50.924;4.754;2023-11-19T13:16:30;14.60;99.90
40600;DHT22;26309;50.924;4.754;2023-11-19T13:18:57;14.60;99.90
40600;DHT22;26309;50.924;4.754;2023-11-19T13:21:23;14.60;99.90
40600;DHT22;26309;50.924;4.754;2023-11-19T13:23:50;14.50;99.90
40600;DHT22;26309;50.924;4.754;2023-11-19T13:26:16;14.50;99.90
40600;DHT22;26309;50.924;4.754;2023-11-19T13:28:42;14.50;99.90
40600;DHT22;26309;50.924;4.754;2023-11-19T13:31:08;14.50;99.90
40600;DHT22;26309;50.924;4.754;2023-11-19T13:33:33;14.50;99.90
40600;DHT22;26309;50.924;4.754;2023-11-19T13:36:00;14.60;99.90
40600;DHT22;26309;50.924;4.754;2023-11-19T13:38:34;14.60;99.90
40600;DHT22;26309;50.924;4.754;2023-11-19T13:41:04;14.50;99.90
40600;DHT22;26309;50.924;4.754;2023-11-19T13:43:30;14.40;99.90
40600;DHT22;26309;50.924;4.754;2023-11-19T13:45:57;14.50;99.90
40600;DHT22;26309;50.924;4.754;2023-11-19T13:48:24;14.40;99.90
40600;DHT22;26309;50.924;4.754;2023-11-19T13:50:50;14.40;99.90
40600;DHT22;26309;50.924;4.754;2023-11-19T13:53:16;14.50;99.90
40600;DHT22;26309;50.924;4.754;2023-11-19T13:55:42;14.40;99.90
40600;DHT22;26309;50.924;4.754;2023-11-19T13:58:09;14.40;99.90
40600;DHT22;26309;50.924;4.754;2023-11-19T14:00:35;14.40;99.90
40600;DHT22;26309;50.924;4.754;2023-11-19T14:03:01;14.30;99.90
40600;DHT22;26309;50.924;4.754;2023-11-19T14:05:28;14.30;99.90
40600;DHT22;26309;50.924;4.754;2023-11-19T14:07:53;14.20;99.90
40600;DHT22;26309;50.924;4.754;2023-11-19T14:10:22;14.20;99.90
40600;DHT22;26309;50.924;4.754;2023-11-19T14:12:48;14.20;99.90
40600;DHT22;26309;50.924;4.754;2023-11-19T14:15:15;14.10;99.90
40600;DHT22;26309;50.924;4.754;2023-11-19T14:17:43;14.10;99.90
40600;DHT22;26309;50.924;4.754;2023-11-19T14:20:09;14.00;99.90
40600;DHT22;26309;50.924;4.754;2023-11-19T14:22:43;14.10;99.90
40600;DHT22;26309;50.924;4.754;2023-11-19T14:25:10;14.20;99.90
40600;DHT22;26309;50.924;4.754;2023-11-19T14:27:41;14.30;99.90
40600;DHT22;26309;50.924;4.754;2023-11-19T14:30:09;14.40;99.90
40600;DHT22;26309;50.924;4.754;2023-11-19T14:32:37;14.30;99.90
40600;DHT22;26309;50.924;4.754;2023-11-19T14:35:04;14.30;99.90
40600;DHT22;26309;50.924;4.754;2023-11-19T14:37:30;14.10;99.90
40600;DHT22;26309;50.924;4.754;2023-11-19T14:39:59;14.10;99.90
40600;DHT22;26309;50.924;4.754;2023-11-19T14:42:26;14.20;99.90
40600;DHT22;26309;50.924;4.754;2023-11-19T14:44:52;14.10;99.90
40600;DHT22;26309;50.924;4.754;2023-11-19T14:47:19;14.20;99.90
40600;DHT22;26309;50.924;4.754;2023-11-19T14:49:45;14.20;99.90
40600;DHT22;26309;50.924;4.754;2023-11-19T14:52:11;14.10;99.90
40600;DHT22;26309;50.924;4.754;2023-11-19T14:54:37;14.10;99.90
40600;DHT22;26309;50.924;4.754;2023-11-19T14:57:06;13.80;99.90
40600;DHT22;26309;50.924;4.754;2023-11-19T14:59:36;13.70;99.90
40600;DHT22;26309;50.924;4.754;2023-11-19T15:02:02;13.60;99.90
40600;DHT22;26309;50.924;4.754;2023-11-19T15:04:28;13.60;99.90
40600;DHT22;26309;50.924;4.754;2023-11-19T15:06:57;13.70;99.90
40600;DHT22;26309;50.924;4.754;2023-11-19T15:09:23;13.70;99.90
40600;DHT22;26309;50.924;4.754;2023-11-19T15:11:50;13.70;99.90
40600;DHT22;26309;50.924;4.754;2023-11-19T15:14:16;13.70;99.90
40600;DHT22;26309;50.924;4.754;2023-11-19T15:16:47;13.70;99.90
40600;DHT22;26309;50.924;4.754;2023-11-19T15:19:16;13.80;99.90
40600;DHT22;26309;50.924;4.754;2023-11-19T15:21:41;13.70;99.90
40600;DHT22;26309;50.924;4.754;2023-11-19T15:24:08;13.70;99.90
40600;DHT22;26309;50.924;4.754;2023-11-19T15:26:35;13.70;99.90
40600;DHT22;26309;50.924;4.754;2023-11-19T15:29:01;13.60;99.90
40600;DHT22;26309;50.924;4.754;2023-11-19T15:31:28;13.70;99.90
40600;DHT22;26309;50.924;4.754;2023-11-19T15:33:54;13.80;99.90
40600;DHT22;26309;50.924;4.754;2023-11-19T15:36:20;13.80;99.90
40600;DHT22;26309;50.924;4.754;2023-11-19T15:38:46;13.80;99.90
40600;DHT22;26309;50.924;4.754;2023-11-19T15:41:12;13.80;99.90
40600;DHT22;26309;50.924;4.754;2023-11-19T15:43:38;13.80;99.90
40600;DHT22;26309;50.924;4.754;2023-11-19T15:46:08;13.70;99.90
40600;DHT22;26309;50.924;4.754;2023-11-19T15:48:34;13.60;99.90
40600;DHT22;26309;50.924;4.754;2023-11-19T15:51:00;13.60;99.90
40600;DHT22;26309;50.924;4.754;2023-11-19T15:53:26;13.70;99.90
40600;DHT22;26309;50.924;4.754;2023-11-19T15:55:52;13.70;99.90